sensor_id;sensor_type;location;lat;lon;timestamp;P1;durP1;ratioP1;P2;durP2;ratioP2
13252;SDS011;6693;54.370;10.132;2023-06-22T00:00:56;8.30;;;3.92;;
13252;SDS011;6693;54.370;10.132;2023-06-22T00:01:57;8.57;;;4.40;;
13252;SDS011;6693;54.370;10.132;2023-06-22T00:03:00;8.25;;;4.57;;
13252;SDS011;6693;54.370;10.132;2023-06-22T00:04:00;9.10;;;4.13;;
13252;SDS011;6693;54.370;10.132;2023-06-22T00:05:04;9.45;;;4.45;;
13252;SDS011;6693;54.370;10.132;2023-06-22T00:06:05;9.52;;;4.30;;
13252;SDS011;6693;54.370;10.132;2023-06-22T00:07:08;10.13;;;4.13;;
13252;SDS011;6693;54.370;10.132;2023-06-22T00:08:09;8.43;;;3.95;;
13252;SDS011;6693;54.370;10.132;2023-06-22T00:09:12;8.82;;;3.95;;
13252;SDS011;6693;54.370;10.132;2023-06-22T00:10:13;7.78;;;3.90;;
13252;SDS011;6693;54.370;10.132;2023-06-22T00:11:16;8.48;;;4.97;;
13252;SDS011;6693;54.370;10.132;2023-06-22T00:12:20;8.13;;;4.00;;
13252;SDS011;6693;54.370;10.132;2023-06-22T00:13:23;8.95;;;4.30;;
13252;SDS011;6693;54.370;10.132;2023-06-22T00:14:26;8.05;;;4.22;;
13252;SDS011;6693;54.370;10.132;2023-06-22T00:15:27;9.07;;;3.95;;
13252;SDS011;6693;54.370;10.132;2023-06-22T00:16:31;7.45;;;3.67;;
13252;SDS011;6693;54.370;10.132;2023-06-22T00:17:32;9.00;;;4.40;;
13252;SDS011;6693;54.370;10.132;2023-06-22T00:18:35;8.10;;;4.88;;
13252;SDS011;6693;54.370;10.132;2023-06-22T00:19:35;7.57;;;3.88;;
13252;SDS011;6693;54.370;10.132;2023-06-22T00:20:41;11.10;;;4.68;;
13252;SDS011;6693;54.370;10.132;2023-06-22T00:21:42;7.85;;;3.40;;
13252;SDS011;6693;54.370;10.132;2023-06-22T00:22:47;9.05;;;4.10;;
13252;SDS011;6693;54.370;10.132;2023-06-22T00:23:48;8.75;;;4.47;;
13252;SDS011;6693;54.370;10.132;2023-06-22T00:24:51;9.40;;;4.50;;
13252;SDS011;6693;54.370;10.132;2023-06-22T00:25:52;8.23;;;3.60;;
13252;SDS011;6693;54.370;10.132;2023-06-22T00:26:55;9.40;;;4.20;;
13252;SDS011;6693;54.370;10.132;2023-06-22T00:27:56;9.18;;;4.43;;
13252;SDS011;6693;54.370;10.132;2023-06-22T00:29:02;8.45;;;3.97;;
13252;SDS011;6693;54.370;10.132;2023-06-22T00:30:02;8.77;;;4.47;;
13252;SDS011;6693;54.370;10.132;2023-06-22T00:31:06;10.32;;;4.70;;
13252;SDS011;6693;54.370;10.132;2023-06-22T00:32:07;9.60;;;4.50;;
13252;SDS011;6693;54.370;10.132;2023-06-22T00:33:10;8.27;;;3.72;;
13252;SDS011;6693;54.370;10.132;2023-06-22T00:34:11;7.75;;;3.95;;
13252;SDS011;6693;54.370;10.132;2023-06-22T00:35:14;10.75;;;4.85;;
13252;SDS011;6693;54.370;10.132;2023-06-22T00:36:15;9.23;;;3.80;;
13252;SDS011;6693;54.370;10.132;2023-06-22T00:37:19;10.38;;;4.63;;
13252;SDS011;6693;54.370;10.132;2023-06-22T00:38:22;7.75;;;3.50;;
13252;SDS011;6693;54.370;10.132;2023-06-22T00:39:26;6.85;;;3.33;;
13252;SDS011;6693;54.370;10.132;2023-06-22T00:40:26;6.93;;;3.53;;
13252;SDS011;6693;54.370;10.132;2023-06-22T00:41:30;8.02;;;4.00;;
13252;SDS011;6693;54.370;10.132;2023-06-22T00:42:31;7.70;;;3.88;;
13252;SDS011;6693;54.370;10.132;2023-06-22T00:43:34;8.95;;;4.40;;
13252;SDS011;6693;54.370;10.132;2023-06-22T00:44:38;8.48;;;4.47;;
13252;SDS011;6693;54.370;10.132;2023-06-22T00:45:41;9.07;;;4.20;;
13252;SDS011;6693;54.370;10.132;2023-06-22T00:46:41;10.93;;;5.60;;
13252;SDS011;6693;54.370;10.132;2023-06-22T00:47:45;9.80;;;5.13;;
13252;SDS011;6693;54.370;10.132;2023-06-22T00:48:45;10.25;;;5.25;;
13252;SDS011;6693;54.370;10.132;2023-06-22T00:49:49;8.48;;;5.22;;
13252;SDS011;6693;54.370;10.132;2023-06-22T00:50:51;8.73;;;3.88;;
13252;SDS011;6693;54.370;10.132;2023-06-22T00:51:55;8.35;;;4.22;;
13252;SDS011;6693;54.370;10.132;2023-06-22T00:52:58;10.38;;;5.40;;
13252;SDS011;6693;54.370;10.132;2023-06-22T00:54:04;9.82;;;4.70;;
13252;SDS011;6693;54.370;10.132;2023-06-22T00:55:05;11.63;;;6.90;;
13252;SDS011;6693;54.370;10.132;2023-06-22T00:56:08;9.48;;;5.03;;
13252;SDS011;6693;54.370;10.132;2023-06-22T00:57:13;13.00;;;6.57;;
13252;SDS011;6693;54.370;10.132;2023-06-22T00:58:16;11.63;;;5.90;;
13252;SDS011;6693;54.370;10.132;2023-06-22T00:59:21;8.52;;;4.10;;
13252;SDS011;6693;54.370;10.132;2023-06-22T01:00:25;9.07;;;4.25;;
13252;SDS011;6693;54.370;10.132;2023-06-22T01:01:28;9.50;;;4.63;;
13252;SDS011;6693;54.370;10.132;2023-06-22T01:02:31;7.93;;;3.92;;
13252;SDS011;6693;54.370;10.132;2023-06-22T01:03:32;8.93;;;5.35;;
13252;SDS011;6693;54.370;10.132;2023-06-22T01:04:36;12.95;;;6.68;;
13252;SDS011;6693;54.370;10.132;2023-06-22T01:05:38;9.75;;;5.35;;
13252;SDS011;6693;54.370;10.132;2023-06-22T01:06:44;12.23;;;6.53;;
13252;SDS011;6693;54.370;10.132;2023-06-22T01:07:56;10.90;;;6.45;;
13252;SDS011;6693;54.370;10.132;2023-06-22T01:09:06;12.30;;;6.55;;
13252;SDS011;6693;54.370;10.132;2023-06-22T01:10:11;8.88;;;3.90;;
13252;SDS011;6693;54.370;10.132;2023-06-22T01:11:20;9.15;;;4.18;;
13252;SDS011;6693;54.370;10.132;2023-06-22T01:12:29;9.88;;;5.20;;
13252;SDS011;6693;54.370;10.132;2023-06-22T01:13:35;10.27;;;4.97;;
13252;SDS011;6693;54.370;10.132;2023-06-22T01:14:39;10.23;;;4.90;;
13252;SDS011;6693;54.370;10.132;2023-06-22T01:15:50;10.85;;;5.75;;
13252;SDS011;6693;54.370;10.132;2023-06-22T01:16:56;12.80;;;6.95;;
13252;SDS011;6693;54.370;10.132;2023-06-22T01:18:00;8.02;;;3.72;;
13252;SDS011;6693;54.370;10.132;2023-06-22T01:19:07;9.73;;;4.85;;
13252;SDS011;6693;54.370;10.132;2023-06-22T01:20:27;8.88;;;4.15;;
13252;SDS011;6693;54.370;10.132;2023-06-22T01:21:30;9.82;;;5.05;;
13252;SDS011;6693;54.370;10.132;2023-06-22T01:24:08;9.85;;;5.40;;
13252;SDS011;6693;54.370;10.132;2023-06-22T01:25:20;10.38;;;5.85;;
13252;SDS011;6693;54.370;10.132;2023-06-22T01:26:42;10.93;;;5.22;;
13252;SDS011;6693;54.370;10.132;2023-06-22T01:28:12;12.30;;;6.35;;
13252;SDS011;6693;54.370;10.132;2023-06-22T01:29:42;9.40;;;5.13;;
13252;SDS011;6693;54.370;10.132;2023-06-22T01:31:06;11.20;;;5.68;;
13252;SDS011;6693;54.370;10.132;2023-06-22T01:32:29;12.07;;;6.78;;
13252;SDS011;6693;54.370;10.132;2023-06-22T01:33:54;10.85;;;6.63;;
13252;SDS011;6693;54.370;10.132;2023-06-22T01:35:16;12.05;;;5.40;;
13252;SDS011;6693;54.370;10.132;2023-06-22T01:36:40;10.30;;;5.55;;
13252;SDS011;6693;54.370;10.132;2023-06-22T01:38:03;11.07;;;5.25;;
13252;SDS011;6693;54.370;10.132;2023-06-22T01:39:24;9.50;;;5.20;;
13252;SDS011;6693;54.370;10.132;2023-06-22T01:40:48;10.13;;;6.30;;
13252;SDS011;6693;54.370;10.132;2023-06-22T01:42:09;11.88;;;6.88;;
13252;SDS011;6693;54.370;10.132;2023-06-22T01:43:32;9.60;;;5.40;;
13252;SDS011;6693;54.370;10.132;2023-06-22T01:44:56;9.55;;;5.45;;
13252;SDS011;6693;54.370;10.132;2023-06-22T01:46:19;13.02;;;5.10;;
13252;SDS011;6693;54.370;10.132;2023-06-22T01:47:41;9.35;;;5.03;;
13252;SDS011;6693;54.370;10.132;2023-06-22T01:49:05;9.18;;;4.88;;
13252;SDS011;6693;54.370;10.132;2023-06-22T01:50:26;12.85;;;6.40;;
13252;SDS011;6693;54.370;10.132;2023-06-22T01:51:49;10.60;;;5.13;;
13252;SDS011;6693;54.370;10.132;2023-06-22T01:53:09;10.13;;;5.32;;
13252;SDS011;6693;54.370;10.132;2023-06-22T01:54:33;9.88;;;4.72;;
13252;SDS011;6693;54.370;10.132;2023-06-22T01:55:56;9.93;;;5.18;;
13252;SDS011;6693;54.370;10.132;2023-06-22T01:57:19;10.63;;;5.43;;
13252;SDS011;6693;54.370;10.132;2023-06-22T01:58:41;10.13;;;5.53;;
13252;SDS011;6693;54.370;10.132;2023-06-22T02:00:11;11.77;;;5.97;;
13252;SDS011;6693;54.370;10.132;2023-06-22T02:01:35;11.82;;;5.85;;
13252;SDS011;6693;54.370;10.132;2023-06-22T02:03:05;12.52;;;6.78;;
13252;SDS011;6693;54.370;10.132;2023-06-22T02:04:31;12.15;;;6.70;;
13252;SDS011;6693;54.370;10.132;2023-06-22T02:05:58;12.77;;;7.75;;
13252;SDS011;6693;54.370;10.132;2023-06-22T02:07:23;12.07;;;6.40;;
13252;SDS011;6693;54.370;10.132;2023-06-22T02:08:53;12.18;;;6.15;;
13252;SDS011;6693;54.370;10.132;2023-06-22T02:10:16;13.77;;;7.40;;
13252;SDS011;6693;54.370;10.132;2023-06-22T02:11:42;10.75;;;6.07;;
13252;SDS011;6693;54.370;10.132;2023-06-22T02:13:07;14.68;;;8.48;;
13252;SDS011;6693;54.370;10.132;2023-06-22T02:14:32;14.25;;;8.27;;
13252;SDS011;6693;54.370;10.132;2023-06-22T02:15:56;13.05;;;6.70;;
13252;SDS011;6693;54.370;10.132;2023-06-22T02:17:19;11.48;;;6.28;;
13252;SDS011;6693;54.370;10.132;2023-06-22T02:18:45;12.75;;;6.40;;
13252;SDS011;6693;54.370;10.132;2023-06-22T02:20:12;12.15;;;5.80;;
13252;SDS011;6693;54.370;10.132;2023-06-22T02:21:35;9.95;;;5.65;;
13252;SDS011;6693;54.370;10.132;2023-06-22T02:22:58;11.13;;;7.05;;
13252;SDS011;6693;54.370;10.132;2023-06-22T02:24:19;13.05;;;7.40;;
13252;SDS011;6693;54.370;10.132;2023-06-22T02:25:43;13.35;;;7.03;;
13252;SDS011;6693;54.370;10.132;2023-06-22T02:27:07;11.85;;;5.72;;
13252;SDS011;6693;54.370;10.132;2023-06-22T02:28:27;12.73;;;6.90;;
13252;SDS011;6693;54.370;10.132;2023-06-22T02:29:50;10.40;;;5.68;;
13252;SDS011;6693;54.370;10.132;2023-06-22T02:31:14;11.38;;;6.07;;
13252;SDS011;6693;54.370;10.132;2023-06-22T02:32:37;11.48;;;5.78;;
13252;SDS011;6693;54.370;10.132;2023-06-22T02:34:02;11.18;;;6.28;;
13252;SDS011;6693;54.370;10.132;2023-06-22T02:35:25;11.70;;;5.70;;
13252;SDS011;6693;54.370;10.132;2023-06-22T02:36:46;9.70;;;5.43;;
13252;SDS011;6693;54.370;10.132;2023-06-22T02:38:13;11.63;;;5.65;;
13252;SDS011;6693;54.370;10.132;2023-06-22T02:39:37;8.75;;;4.70;;
13252;SDS011;6693;54.370;10.132;2023-06-22T02:41:00;12.45;;;6.45;;
13252;SDS011;6693;54.370;10.132;2023-06-22T02:42:23;13.00;;;6.88;;
13252;SDS011;6693;54.370;10.132;2023-06-22T02:43:44;12.40;;;7.10;;
13252;SDS011;6693;54.370;10.132;2023-06-22T02:45:08;16.23;;;8.40;;
13252;SDS011;6693;54.370;10.132;2023-06-22T02:46:35;13.63;;;7.68;;
13252;SDS011;6693;54.370;10.132;2023-06-22T02:47:58;10.25;;;4.78;;
13252;SDS011;6693;54.370;10.132;2023-06-22T02:49:21;10.25;;;5.97;;
13252;SDS011;6693;54.370;10.132;2023-06-22T02:50:42;12.57;;;6.57;;
13252;SDS011;6693;54.370;10.132;2023-06-22T02:52:05;11.90;;;6.45;;
13252;SDS011;6693;54.370;10.132;2023-06-22T02:53:29;12.65;;;6.45;;
13252;SDS011;6693;54.370;10.132;2023-06-22T02:54:49;11.98;;;6.97;;
13252;SDS011;6693;54.370;10.132;2023-06-22T02:56:12;13.43;;;7.25;;
13252;SDS011;6693;54.370;10.132;2023-06-22T02:57:37;11.38;;;6.30;;
13252;SDS011;6693;54.370;10.132;2023-06-22T02:59:04;14.10;;;7.30;;
13252;SDS011;6693;54.370;10.132;2023-06-22T03:00:25;15.65;;;7.60;;
13252;SDS011;6693;54.370;10.132;2023-06-22T03:01:53;13.63;;;7.55;;
13252;SDS011;6693;54.370;10.132;2023-06-22T03:03:13;15.07;;;8.25;;
13252;SDS011;6693;54.370;10.132;2023-06-22T03:04:36;14.73;;;8.00;;
13252;SDS011;6693;54.370;10.132;2023-06-22T03:05:57;13.48;;;7.00;;
13252;SDS011;6693;54.370;10.132;2023-06-22T03:07:20;13.60;;;7.18;;
13252;SDS011;6693;54.370;10.132;2023-06-22T03:08:44;13.40;;;6.97;;
13252;SDS011;6693;54.370;10.132;2023-06-22T03:10:04;13.93;;;7.30;;
13252;SDS011;6693;54.370;10.132;2023-06-22T03:11:29;12.93;;;7.15;;
13252;SDS011;6693;54.370;10.132;2023-06-22T03:12:50;13.43;;;6.85;;
13252;SDS011;6693;54.370;10.132;2023-06-22T03:14:13;12.82;;;6.88;;
13252;SDS011;6693;54.370;10.132;2023-06-22T03:15:36;15.40;;;8.68;;
13252;SDS011;6693;54.370;10.132;2023-06-22T03:17:02;16.38;;;9.10;;
13252;SDS011;6693;54.370;10.132;2023-06-22T03:18:24;15.05;;;8.38;;
13252;SDS011;6693;54.370;10.132;2023-06-22T03:19:47;12.98;;;6.97;;
13252;SDS011;6693;54.370;10.132;2023-06-22T03:21:07;10.68;;;5.43;;
13252;SDS011;6693;54.370;10.132;2023-06-22T03:22:31;12.25;;;5.82;;
13252;SDS011;6693;54.370;10.132;2023-06-22T03:23:54;14.23;;;7.40;;
13252;SDS011;6693;54.370;10.132;2023-06-22T03:25:17;14.90;;;7.70;;
13252;SDS011;6693;54.370;10.132;2023-06-22T03:26:38;15.13;;;8.40;;
13252;SDS011;6693;54.370;10.132;2023-06-22T03:28:01;15.30;;;9.05;;
13252;SDS011;6693;54.370;10.132;2023-06-22T03:29:24;13.35;;;7.55;;
13252;SDS011;6693;54.370;10.132;2023-06-22T03:30:45;15.52;;;9.40;;
13252;SDS011;6693;54.370;10.132;2023-06-22T03:32:11;15.88;;;7.93;;
13252;SDS011;6693;54.370;10.132;2023-06-22T03:33:34;12.15;;;6.82;;
13252;SDS011;6693;54.370;10.132;2023-06-22T03:34:57;10.35;;;5.95;;
13252;SDS011;6693;54.370;10.132;2023-06-22T03:36:20;18.10;;;9.75;;
13252;SDS011;6693;54.370;10.132;2023-06-22T03:37:43;13.18;;;7.30;;
13252;SDS011;6693;54.370;10.132;2023-06-22T03:39:07;14.50;;;7.32;;
13252;SDS011;6693;54.370;10.132;2023-06-22T03:40:27;13.07;;;7.35;;
13252;SDS011;6693;54.370;10.132;2023-06-22T03:41:50;16.70;;;9.10;;
13252;SDS011;6693;54.370;10.132;2023-06-22T03:43:11;15.52;;;8.95;;
13252;SDS011;6693;54.370;10.132;2023-06-22T03:44:34;13.68;;;7.82;;
13252;SDS011;6693;54.370;10.132;2023-06-22T03:45:58;14.77;;;8.13;;
13252;SDS011;6693;54.370;10.132;2023-06-22T03:47:21;15.13;;;9.18;;
13252;SDS011;6693;54.370;10.132;2023-06-22T03:48:45;12.93;;;7.10;;
13252;SDS011;6693;54.370;10.132;2023-06-22T03:50:10;13.95;;;7.28;;
13252;SDS011;6693;54.370;10.132;2023-06-22T03:51:34;12.50;;;6.80;;
13252;SDS011;6693;54.370;10.132;2023-06-22T03:52:57;14.85;;;8.32;;
13252;SDS011;6693;54.370;10.132;2023-06-22T03:54:20;10.95;;;5.88;;
13252;SDS011;6693;54.370;10.132;2023-06-22T03:55:47;13.95;;;7.53;;
13252;SDS011;6693;54.370;10.132;2023-06-22T03:57:11;12.50;;;6.60;;
13252;SDS011;6693;54.370;10.132;2023-06-22T03:58:34;13.52;;;6.95;;
13252;SDS011;6693;54.370;10.132;2023-06-22T04:00:03;14.05;;;8.00;;
13252;SDS011;6693;54.370;10.132;2023-06-22T04:01:25;15.32;;;7.43;;
13252;SDS011;6693;54.370;10.132;2023-06-22T04:02:51;13.48;;;7.20;;
13252;SDS011;6693;54.370;10.132;2023-06-22T04:04:12;17.05;;;8.77;;
13252;SDS011;6693;54.370;10.132;2023-06-22T04:05:35;12.38;;;7.38;;
13252;SDS011;6693;54.370;10.132;2023-06-22T04:06:58;10.60;;;6.03;;
13252;SDS011;6693;54.370;10.132;2023-06-22T04:08:21;10.68;;;5.50;;
13252;SDS011;6693;54.370;10.132;2023-06-22T04:09:44;15.00;;;8.30;;
13252;SDS011;6693;54.370;10.132;2023-06-22T04:11:08;14.30;;;8.68;;
13252;SDS011;6693;54.370;10.132;2023-06-22T04:12:28;12.80;;;6.25;;
13252;SDS011;6693;54.370;10.132;2023-06-22T04:13:51;9.02;;;5.32;;
13252;SDS011;6693;54.370;10.132;2023-06-22T04:15:15;11.25;;;5.80;;
13252;SDS011;6693;54.370;10.132;2023-06-22T04:16:36;12.07;;;5.85;;
13252;SDS011;6693;54.370;10.132;2023-06-22T04:18:02;11.65;;;7.00;;
13252;SDS011;6693;54.370;10.132;2023-06-22T04:19:25;14.70;;;6.50;;
13252;SDS011;6693;54.370;10.132;2023-06-22T04:20:48;12.15;;;6.53;;
13252;SDS011;6693;54.370;10.132;2023-06-22T04:22:11;11.40;;;6.30;;
13252;SDS011;6693;54.370;10.132;2023-06-22T04:23:34;12.18;;;6.55;;
13252;SDS011;6693;54.370;10.132;2023-06-22T04:24:55;15.32;;;8.15;;
13252;SDS011;6693;54.370;10.132;2023-06-22T04:26:18;10.98;;;5.95;;
13252;SDS011;6693;54.370;10.132;2023-06-22T04:27:43;12.68;;;6.55;;
13252;SDS011;6693;54.370;10.132;2023-06-22T04:29:06;13.27;;;6.95;;
13252;SDS011;6693;54.370;10.132;2023-06-22T04:30:29;13.20;;;6.70;;
13252;SDS011;6693;54.370;10.132;2023-06-22T04:31:51;10.80;;;5.70;;
13252;SDS011;6693;54.370;10.132;2023-06-22T04:33:18;11.40;;;5.85;;
13252;SDS011;6693;54.370;10.132;2023-06-22T04:34:41;14.18;;;7.43;;
13252;SDS011;6693;54.370;10.132;2023-06-22T04:36:02;13.75;;;7.55;;
13252;SDS011;6693;54.370;10.132;2023-06-22T04:37:26;12.20;;;6.40;;
13252;SDS011;6693;54.370;10.132;2023-06-22T04:38:46;15.52;;;8.13;;
13252;SDS011;6693;54.370;10.132;2023-06-22T04:40:12;12.07;;;5.85;;
13252;SDS011;6693;54.370;10.132;2023-06-22T04:41:35;10.95;;;5.25;;
13252;SDS011;6693;54.370;10.132;2023-06-22T04:43:04;11.65;;;5.57;;
13252;SDS011;6693;54.370;10.132;2023-06-22T04:44:26;10.18;;;4.72;;
13252;SDS011;6693;54.370;10.132;2023-06-22T04:45:49;14.15;;;7.53;;
13252;SDS011;6693;54.370;10.132;2023-06-22T04:47:13;10.73;;;4.82;;
13252;SDS011;6693;54.370;10.132;2023-06-22T04:48:36;16.02;;;9.13;;
13252;SDS011;6693;54.370;10.132;2023-06-22T04:49:59;16.90;;;9.52;;
13252;SDS011;6693;54.370;10.132;2023-06-22T04:51:25;17.05;;;9.63;;
13252;SDS011;6693;54.370;10.132;2023-06-22T04:52:50;14.50;;;8.85;;
13252;SDS011;6693;54.370;10.132;2023-06-22T04:54:14;11.85;;;6.53;;
13252;SDS011;6693;54.370;10.132;2023-06-22T04:55:37;10.88;;;5.97;;
13252;SDS011;6693;54.370;10.132;2023-06-22T04:57:02;15.32;;;7.95;;
13252;SDS011;6693;54.370;10.132;2023-06-22T04:58:29;10.15;;;5.45;;
13252;SDS011;6693;54.370;10.132;2023-06-22T04:59:53;12.73;;;6.78;;
13252;SDS011;6693;54.370;10.132;2023-06-22T05:01:13;12.98;;;7.00;;
13252;SDS011;6693;54.370;10.132;2023-06-22T05:02:36;14.23;;;7.53;;
13252;SDS011;6693;54.370;10.132;2023-06-22T05:04:02;11.75;;;6.43;;
13252;SDS011;6693;54.370;10.132;2023-06-22T05:05:26;10.20;;;5.40;;
13252;SDS011;6693;54.370;10.132;2023-06-22T05:06:50;12.85;;;6.55;;
13252;SDS011;6693;54.370;10.132;2023-06-22T05:08:13;10.05;;;5.78;;
13252;SDS011;6693;54.370;10.132;2023-06-22T05:09:33;13.32;;;6.50;;
13252;SDS011;6693;54.370;10.132;2023-06-22T05:10:57;11.30;;;5.38;;
13252;SDS011;6693;54.370;10.132;2023-06-22T05:12:20;10.27;;;5.55;;
13252;SDS011;6693;54.370;10.132;2023-06-22T05:13:43;10.63;;;5.53;;
13252;SDS011;6693;54.370;10.132;2023-06-22T05:15:04;11.13;;;4.70;;
13252;SDS011;6693;54.370;10.132;2023-06-22T05:16:28;10.57;;;4.80;;
13252;SDS011;6693;54.370;10.132;2023-06-22T05:17:51;11.52;;;5.07;;
13252;SDS011;6693;54.370;10.132;2023-06-22T05:19:17;9.25;;;5.13;;
13252;SDS011;6693;54.370;10.132;2023-06-22T05:20:40;8.40;;;4.40;;
13252;SDS011;6693;54.370;10.132;2023-06-22T05:22:04;9.68;;;4.50;;
13252;SDS011;6693;54.370;10.132;2023-06-22T05:23:27;9.05;;;3.83;;
13252;SDS011;6693;54.370;10.132;2023-06-22T05:24:50;9.20;;;4.53;;
13252;SDS011;6693;54.370;10.132;2023-06-22T05:26:10;8.90;;;3.67;;
13252;SDS011;6693;54.370;10.132;2023-06-22T05:27:34;8.93;;;5.40;;
13252;SDS011;6693;54.370;10.132;2023-06-22T05:28:59;9.15;;;4.30;;
13252;SDS011;6693;54.370;10.132;2023-06-22T05:30:23;10.55;;;5.43;;
13252;SDS011;6693;54.370;10.132;2023-06-22T05:31:44;7.97;;;4.32;;
13252;SDS011;6693;54.370;10.132;2023-06-22T05:33:07;8.82;;;4.78;;
13252;SDS011;6693;54.370;10.132;2023-06-22T05:34:33;13.00;;;6.40;;
13252;SDS011;6693;54.370;10.132;2023-06-22T05:35:56;11.98;;;6.90;;
13252;SDS011;6693;54.370;10.132;2023-06-22T05:37:19;12.98;;;6.35;;
13252;SDS011;6693;54.370;10.132;2023-06-22T05:38:42;14.07;;;7.10;;
13252;SDS011;6693;54.370;10.132;2023-06-22T05:40:06;13.57;;;6.03;;
13252;SDS011;6693;54.370;10.132;2023-06-22T05:41:30;14.05;;;5.00;;
13252;SDS011;6693;54.370;10.132;2023-06-22T05:42:51;11.20;;;4.68;;
13252;SDS011;6693;54.370;10.132;2023-06-22T05:44:14;11.40;;;4.65;;
13252;SDS011;6693;54.370;10.132;2023-06-22T05:45:37;16.23;;;5.75;;
13252;SDS011;6693;54.370;10.132;2023-06-22T05:46:58;12.90;;;5.40;;
13252;SDS011;6693;54.370;10.132;2023-06-22T05:48:21;13.15;;;5.65;;
13252;SDS011;6693;54.370;10.132;2023-06-22T05:49:47;13.95;;;5.82;;
13252;SDS011;6693;54.370;10.132;2023-06-22T05:51:10;10.68;;;4.20;;
13252;SDS011;6693;54.370;10.132;2023-06-22T05:52:33;10.02;;;4.10;;
13252;SDS011;6693;54.370;10.132;2023-06-22T05:53:56;9.80;;;5.28;;
13252;SDS011;6693;54.370;10.132;2023-06-22T05:55:19;10.90;;;4.90;;
13252;SDS011;6693;54.370;10.132;2023-06-22T05:56:40;10.57;;;5.20;;
13252;SDS011;6693;54.370;10.132;2023-06-22T05:58:03;8.98;;;4.82;;
13252;SDS011;6693;54.370;10.132;2023-06-22T05:59:26;11.10;;;5.93;;
13252;SDS011;6693;54.370;10.132;2023-06-22T06:00:49;10.23;;;4.75;;
13252;SDS011;6693;54.370;10.132;2023-06-22T06:02:13;7.90;;;4.35;;
13252;SDS011;6693;54.370;10.132;2023-06-22T06:03:36;8.73;;;4.20;;
13252;SDS011;6693;54.370;10.132;2023-06-22T06:05:04;9.02;;;4.22;;
13252;SDS011;6693;54.370;10.132;2023-06-22T06:06:28;8.13;;;4.43;;
13252;SDS011;6693;54.370;10.132;2023-06-22T06:07:51;8.13;;;4.22;;
13252;SDS011;6693;54.370;10.132;2023-06-22T06:09:14;9.30;;;5.80;;
13252;SDS011;6693;54.370;10.132;2023-06-22T06:10:37;7.57;;;3.50;;
13252;SDS011;6693;54.370;10.132;2023-06-22T06:12:00;9.93;;;5.10;;
13252;SDS011;6693;54.370;10.132;2023-06-22T06:13:24;10.10;;;5.10;;
13252;SDS011;6693;54.370;10.132;2023-06-22T06:14:47;7.57;;;4.43;;
13252;SDS011;6693;54.370;10.132;2023-06-22T06:16:12;9.65;;;4.28;;
13252;SDS011;6693;54.370;10.132;2023-06-22T06:17:35;8.82;;;3.60;;
13252;SDS011;6693;54.370;10.132;2023-06-22T06:18:58;8.75;;;4.15;;
13252;SDS011;6693;54.370;10.132;2023-06-22T06:20:25;6.90;;;3.40;;
13252;SDS011;6693;54.370;10.132;2023-06-22T06:21:49;7.63;;;3.55;;
13252;SDS011;6693;54.370;10.132;2023-06-22T06:23:12;8.02;;;3.45;;
13252;SDS011;6693;54.370;10.132;2023-06-22T06:24:35;7.13;;;2.80;;
13252;SDS011;6693;54.370;10.132;2023-06-22T06:25:58;8.65;;;3.00;;
13252;SDS011;6693;54.370;10.132;2023-06-22T06:27:22;7.50;;;2.72;;
13252;SDS011;6693;54.370;10.132;2023-06-22T06:28:50;6.57;;;2.30;;
13252;SDS011;6693;54.370;10.132;2023-06-22T06:30:13;6.22;;;2.30;;
13252;SDS011;6693;54.370;10.132;2023-06-22T06:31:37;7.35;;;2.50;;
13252;SDS011;6693;54.370;10.132;2023-06-22T06:33:01;9.05;;;3.05;;
13252;SDS011;6693;54.370;10.132;2023-06-22T06:34:24;7.18;;;2.45;;
13252;SDS011;6693;54.370;10.132;2023-06-22T06:35:50;7.95;;;2.60;;
13252;SDS011;6693;54.370;10.132;2023-06-22T06:37:16;7.38;;;3.35;;
13252;SDS011;6693;54.370;10.132;2023-06-22T06:38:39;8.10;;;2.85;;
13252;SDS011;6693;54.370;10.132;2023-06-22T06:40:02;6.03;;;2.50;;
13252;SDS011;6693;54.370;10.132;2023-06-22T06:41:29;6.30;;;2.70;;
13252;SDS011;6693;54.370;10.132;2023-06-22T06:42:52;6.70;;;2.50;;
13252;SDS011;6693;54.370;10.132;2023-06-22T06:44:15;5.80;;;2.50;;
13252;SDS011;6693;54.370;10.132;2023-06-22T06:45:38;7.88;;;2.25;;
13252;SDS011;6693;54.370;10.132;2023-06-22T06:46:59;6.50;;;2.40;;
13252;SDS011;6693;54.370;10.132;2023-06-22T06:49:47;5.57;;;2.08;;
13252;SDS011;6693;54.370;10.132;2023-06-22T06:51:13;5.75;;;2.28;;
13252;SDS011;6693;54.370;10.132;2023-06-22T06:52:36;5.18;;;2.08;;
13252;SDS011;6693;54.370;10.132;2023-06-22T06:54:00;5.13;;;2.00;;
13252;SDS011;6693;54.370;10.132;2023-06-22T06:55:23;6.28;;;2.00;;
13252;SDS011;6693;54.370;10.132;2023-06-22T06:56:46;6.82;;;2.10;;
13252;SDS011;6693;54.370;10.132;2023-06-22T06:58:10;5.30;;;1.85;;
13252;SDS011;6693;54.370;10.132;2023-06-22T06:59:33;7.15;;;2.55;;
13252;SDS011;6693;54.370;10.132;2023-06-22T07:00:56;5.55;;;2.13;;
13252;SDS011;6693;54.370;10.132;2023-06-22T07:02:19;6.28;;;1.80;;
13252;SDS011;6693;54.370;10.132;2023-06-22T07:03:42;5.13;;;2.03;;
13252;SDS011;6693;54.370;10.132;2023-06-22T07:05:06;4.60;;;1.80;;
13252;SDS011;6693;54.370;10.132;2023-06-22T07:06:32;5.03;;;2.13;;
13252;SDS011;6693;54.370;10.132;2023-06-22T07:07:55;5.43;;;2.00;;
13252;SDS011;6693;54.370;10.132;2023-06-22T07:09:19;5.85;;;2.40;;
13252;SDS011;6693;54.370;10.132;2023-06-22T07:10:39;6.95;;;2.78;;
13252;SDS011;6693;54.370;10.132;2023-06-22T07:12:03;8.13;;;3.40;;
13252;SDS011;6693;54.370;10.132;2023-06-22T07:13:24;5.85;;;3.35;;
13252;SDS011;6693;54.370;10.132;2023-06-22T07:14:48;7.95;;;4.20;;
13252;SDS011;6693;54.370;10.132;2023-06-22T07:16:11;8.07;;;3.30;;
13252;SDS011;6693;54.370;10.132;2023-06-22T07:17:34;5.38;;;2.95;;
13252;SDS011;6693;54.370;10.132;2023-06-22T07:18:59;6.82;;;3.40;;
13252;SDS011;6693;54.370;10.132;2023-06-22T07:20:22;7.28;;;2.88;;
13252;SDS011;6693;54.370;10.132;2023-06-22T07:21:48;7.25;;;2.72;;
13252;SDS011;6693;54.370;10.132;2023-06-22T07:23:11;6.35;;;2.45;;
13252;SDS011;6693;54.370;10.132;2023-06-22T07:24:34;5.88;;;2.30;;
13252;SDS011;6693;54.370;10.132;2023-06-22T07:25:57;6.95;;;2.40;;
13252;SDS011;6693;54.370;10.132;2023-06-22T07:27:22;6.47;;;2.40;;
13252;SDS011;6693;54.370;10.132;2023-06-22T07:28:45;5.40;;;2.45;;
13252;SDS011;6693;54.370;10.132;2023-06-22T07:30:08;6.20;;;2.55;;
13252;SDS011;6693;54.370;10.132;2023-06-22T07:31:32;5.43;;;2.42;;
13252;SDS011;6693;54.370;10.132;2023-06-22T07:32:56;4.90;;;2.28;;
13252;SDS011;6693;54.370;10.132;2023-06-22T07:34:24;7.00;;;2.45;;
13252;SDS011;6693;54.370;10.132;2023-06-22T07:35:47;5.72;;;2.40;;
13252;SDS011;6693;54.370;10.132;2023-06-22T07:37:15;6.43;;;2.50;;
13252;SDS011;6693;54.370;10.132;2023-06-22T07:38:38;6.25;;;2.38;;
13252;SDS011;6693;54.370;10.132;2023-06-22T07:40:01;6.03;;;2.50;;
13252;SDS011;6693;54.370;10.132;2023-06-22T07:41:26;6.00;;;2.03;;
13252;SDS011;6693;54.370;10.132;2023-06-22T07:42:49;6.70;;;2.33;;
13252;SDS011;6693;54.370;10.132;2023-06-22T07:44:13;5.72;;;2.85;;
13252;SDS011;6693;54.370;10.132;2023-06-22T07:45:37;8.27;;;2.40;;
13252;SDS011;6693;54.370;10.132;2023-06-22T07:47:02;5.05;;;2.35;;
13252;SDS011;6693;54.370;10.132;2023-06-22T07:48:25;5.50;;;2.63;;
13252;SDS011;6693;54.370;10.132;2023-06-22T07:49:48;7.35;;;3.85;;
13252;SDS011;6693;54.370;10.132;2023-06-22T07:51:12;5.40;;;2.92;;
13252;SDS011;6693;54.370;10.132;2023-06-22T07:52:38;6.85;;;3.53;;
13252;SDS011;6693;54.370;10.132;2023-06-22T07:54:01;9.00;;;5.55;;
13252;SDS011;6693;54.370;10.132;2023-06-22T07:55:24;9.88;;;6.22;;
13252;SDS011;6693;54.370;10.132;2023-06-22T07:56:47;9.38;;;5.65;;